Hovedside
METAR-TAF:

METAR-TAF

Lufthavner :

Oljeplattform

Euro, Nederland

breddegrad: 51-59-52N, lengdegrad: 3-16-30E, høyde over havet: 18 m

Gjeldene værobservasjon

Denne rapporten ble laget for 35 minutter siden, klokken 13:55 UTC
Vind 10 kt fra Øst-nordøst
Temperatur 19°C
Luftfuktighet 78%
Trykk 1022 hPa
Sikt 10 km eller mer

METAR: EHSA 181355Z AUTO 06010KT 9999 ///////// 19/15 Q1022 W17/H4

Tid: 16:30 (14:30 UTC)


TAF: fraværende

Værobservasjoner og værvarsel for over 4000 flyplasser (METAR- og TAF-rapporter).

Tilgjengelige stasjoner er representert av de røde og gule prikkene på kartet.

Hold musepekeren over prikken for å se navnet på stasjonen.

Klikk så for å se værobservasjoner og -varsler.

For å forandre kartet kan du klikke på den grønne knappen med svart kryss for å zoome inn, på den grønne knappen med strek for å zoome ut, eller på de grønne pilene for å se tilstøtende kart.


METAR-TAF: